sensor_id;sensor_type;location;lat;lon;timestamp;P1;durP1;ratioP1;P2;durP2;ratioP2
4313;SDS011;2170;48.794;9.182;2024-03-25T00:01:38;5.47;;;3.00;;
4313;SDS011;2170;48.794;9.182;2024-03-25T00:04:04;4.27;;;3.17;;
4313;SDS011;2170;48.794;9.182;2024-03-25T00:06:31;2.80;;;2.60;;
4313;SDS011;2170;48.794;9.182;2024-03-25T00:09:00;3.80;;;3.23;;
4313;SDS011;2170;48.794;9.182;2024-03-25T00:11:26;3.93;;;3.10;;
4313;SDS011;2170;48.794;9.182;2024-03-25T00:13:52;3.63;;;2.90;;
4313;SDS011;2170;48.794;9.182;2024-03-25T00:16:19;5.83;;;3.27;;
4313;SDS011;2170;48.794;9.182;2024-03-25T00:18:45;4.07;;;3.00;;
4313;SDS011;2170;48.794;9.182;2024-03-25T00:21:12;2.70;;;2.60;;
4313;SDS011;2170;48.794;9.182;2024-03-25T00:23:37;4.20;;;3.80;;
4313;SDS011;2170;48.794;9.182;2024-03-25T00:26:05;3.53;;;2.97;;
4313;SDS011;2170;48.794;9.182;2024-03-25T00:28:31;3.10;;;2.90;;
4313;SDS011;2170;48.794;9.182;2024-03-25T00:30:58;3.93;;;3.40;;
4313;SDS011;2170;48.794;9.182;2024-03-25T00:33:24;5.07;;;2.93;;
4313;SDS011;2170;48.794;9.182;2024-03-25T00:35:51;3.30;;;3.10;;
4313;SDS011;2170;48.794;9.182;2024-03-25T00:38:17;3.73;;;2.90;;
4313;SDS011;2170;48.794;9.182;2024-03-25T00:40:44;4.23;;;2.90;;
4313;SDS011;2170;48.794;9.182;2024-03-25T00:43:11;4.17;;;2.80;;
4313;SDS011;2170;48.794;9.182;2024-03-25T00:45:38;4.07;;;3.03;;
4313;SDS011;2170;48.794;9.182;2024-03-25T00:48:04;3.60;;;3.10;;
4313;SDS011;2170;48.794;9.182;2024-03-25T00:50:31;3.83;;;3.50;;
4313;SDS011;2170;48.794;9.182;2024-03-25T00:52:57;3.67;;;2.90;;
4313;SDS011;2170;48.794;9.182;2024-03-25T00:55:23;3.30;;;3.00;;
4313;SDS011;2170;48.794;9.182;2024-03-25T00:57:50;4.20;;;3.80;;
4313;SDS011;2170;48.794;9.182;2024-03-25T01:00:18;3.50;;;3.20;;
4313;SDS011;2170;48.794;9.182;2024-03-25T01:02:44;4.30;;;3.80;;
4313;SDS011;2170;48.794;9.182;2024-03-25T01:05:11;4.60;;;3.30;;
4313;SDS011;2170;48.794;9.182;2024-03-25T01:07:37;3.77;;;3.43;;
4313;SDS011;2170;48.794;9.182;2024-03-25T01:10:04;4.40;;;3.97;;
4313;SDS011;2170;48.794;9.182;2024-03-25T01:12:31;4.70;;;3.37;;
4313;SDS011;2170;48.794;9.182;2024-03-25T01:14:58;4.53;;;3.57;;
4313;SDS011;2170;48.794;9.182;2024-03-25T01:17:25;4.67;;;3.50;;
4313;SDS011;2170;48.794;9.182;2024-03-25T01:19:52;3.70;;;3.37;;
4313;SDS011;2170;48.794;9.182;2024-03-25T01:22:18;3.67;;;3.40;;
4313;SDS011;2170;48.794;9.182;2024-03-25T01:24:44;5.53;;;3.43;;
4313;SDS011;2170;48.794;9.182;2024-03-25T01:27:10;8.93;;;3.80;;
4313;SDS011;2170;48.794;9.182;2024-03-25T01:29:37;5.53;;;3.23;;
4313;SDS011;2170;48.794;9.182;2024-03-25T01:32:03;4.13;;;3.53;;
4313;SDS011;2170;48.794;9.182;2024-03-25T01:34:31;4.47;;;3.27;;
4313;SDS011;2170;48.794;9.182;2024-03-25T01:36:57;3.87;;;3.30;;
4313;SDS011;2170;48.794;9.182;2024-03-25T01:39:24;4.23;;;3.60;;
4313;SDS011;2170;48.794;9.182;2024-03-25T01:41:50;5.20;;;3.47;;
4313;SDS011;2170;48.794;9.182;2024-03-25T01:44:17;3.83;;;3.53;;
4313;SDS011;2170;48.794;9.182;2024-03-25T01:46:42;4.17;;;3.70;;
4313;SDS011;2170;48.794;9.182;2024-03-25T01:49:09;6.07;;;3.60;;
4313;SDS011;2170;48.794;9.182;2024-03-25T01:51:37;5.30;;;3.80;;
4313;SDS011;2170;48.794;9.182;2024-03-25T01:54:06;5.10;;;3.23;;
4313;SDS011;2170;48.794;9.182;2024-03-25T01:56:32;3.67;;;3.37;;
4313;SDS011;2170;48.794;9.182;2024-03-25T01:59:00;5.20;;;3.27;;
4313;SDS011;2170;48.794;9.182;2024-03-25T02:01:26;4.80;;;4.10;;
4313;SDS011;2170;48.794;9.182;2024-03-25T02:03:53;4.33;;;3.93;;
4313;SDS011;2170;48.794;9.182;2024-03-25T02:06:20;3.93;;;3.63;;
4313;SDS011;2170;48.794;9.182;2024-03-25T02:08:49;4.00;;;3.60;;
4313;SDS011;2170;48.794;9.182;2024-03-25T02:11:18;4.03;;;3.63;;
4313;SDS011;2170;48.794;9.182;2024-03-25T02:13:46;3.60;;;3.30;;
4313;SDS011;2170;48.794;9.182;2024-03-25T02:16:12;6.00;;;3.60;;
4313;SDS011;2170;48.794;9.182;2024-03-25T02:18:39;4.50;;;4.10;;
4313;SDS011;2170;48.794;9.182;2024-03-25T02:21:04;4.17;;;3.43;;
4313;SDS011;2170;48.794;9.182;2024-03-25T02:23:31;3.73;;;3.40;;
4313;SDS011;2170;48.794;9.182;2024-03-25T02:26:00;3.57;;;3.20;;
4313;SDS011;2170;48.794;9.182;2024-03-25T02:28:27;5.13;;;3.40;;
4313;SDS011;2170;48.794;9.182;2024-03-25T02:30:53;4.47;;;4.07;;
4313;SDS011;2170;48.794;9.182;2024-03-25T02:33:19;5.83;;;4.00;;
4313;SDS011;2170;48.794;9.182;2024-03-25T02:35:45;3.97;;;3.67;;
4313;SDS011;2170;48.794;9.182;2024-03-25T02:38:12;5.77;;;4.10;;
4313;SDS011;2170;48.794;9.182;2024-03-25T02:40:40;6.03;;;3.73;;
4313;SDS011;2170;48.794;9.182;2024-03-25T02:43:09;6.63;;;3.83;;
4313;SDS011;2170;48.794;9.182;2024-03-25T02:45:35;6.43;;;3.60;;
4313;SDS011;2170;48.794;9.182;2024-03-25T02:48:02;7.10;;;3.77;;
4313;SDS011;2170;48.794;9.182;2024-03-25T02:50:29;3.80;;;3.50;;
4313;SDS011;2170;48.794;9.182;2024-03-25T02:52:55;4.80;;;3.93;;
4313;SDS011;2170;48.794;9.182;2024-03-25T02:55:21;10.43;;;3.83;;
4313;SDS011;2170;48.794;9.182;2024-03-25T02:57:48;4.30;;;3.73;;
4313;SDS011;2170;48.794;9.182;2024-03-25T03:00:15;4.63;;;3.57;;
4313;SDS011;2170;48.794;9.182;2024-03-25T03:02:42;3.97;;;3.60;;
4313;SDS011;2170;48.794;9.182;2024-03-25T03:05:08;4.70;;;3.80;;
4313;SDS011;2170;48.794;9.182;2024-03-25T03:07:34;3.80;;;3.27;;
4313;SDS011;2170;48.794;9.182;2024-03-25T03:10:00;5.67;;;3.90;;
4313;SDS011;2170;48.794;9.182;2024-03-25T03:12:27;5.53;;;4.27;;
4313;SDS011;2170;48.794;9.182;2024-03-25T03:14:53;6.80;;;3.97;;
4313;SDS011;2170;48.794;9.182;2024-03-25T03:17:21;4.87;;;3.87;;
4313;SDS011;2170;48.794;9.182;2024-03-25T03:19:47;8.80;;;3.93;;
4313;SDS011;2170;48.794;9.182;2024-03-25T03:22:13;5.10;;;3.33;;
4313;SDS011;2170;48.794;9.182;2024-03-25T03:24:39;9.63;;;4.47;;
4313;SDS011;2170;48.794;9.182;2024-03-25T03:27:06;4.60;;;4.20;;
4313;SDS011;2170;48.794;9.182;2024-03-25T03:29:31;6.23;;;4.33;;
4313;SDS011;2170;48.794;9.182;2024-03-25T03:31:58;5.57;;;4.17;;
4313;SDS011;2170;48.794;9.182;2024-03-25T03:34:26;4.27;;;3.83;;
4313;SDS011;2170;48.794;9.182;2024-03-25T03:36:53;4.33;;;3.87;;
4313;SDS011;2170;48.794;9.182;2024-03-25T03:39:18;3.60;;;3.33;;
4313;SDS011;2170;48.794;9.182;2024-03-25T03:41:45;10.93;;;4.63;;
4313;SDS011;2170;48.794;9.182;2024-03-25T03:44:11;4.30;;;3.93;;
4313;SDS011;2170;48.794;9.182;2024-03-25T03:46:40;4.10;;;3.70;;
4313;SDS011;2170;48.794;9.182;2024-03-25T03:49:05;5.20;;;4.43;;
4313;SDS011;2170;48.794;9.182;2024-03-25T03:51:33;5.67;;;4.40;;
4313;SDS011;2170;48.794;9.182;2024-03-25T03:53:59;4.80;;;3.93;;
4313;SDS011;2170;48.794;9.182;2024-03-25T03:56:26;4.53;;;3.67;;
4313;SDS011;2170;48.794;9.182;2024-03-25T03:58:52;6.63;;;4.10;;
4313;SDS011;2170;48.794;9.182;2024-03-25T04:01:18;5.10;;;4.20;;
4313;SDS011;2170;48.794;9.182;2024-03-25T04:03:44;6.40;;;3.73;;
4313;SDS011;2170;48.794;9.182;2024-03-25T04:06:11;6.07;;;4.70;;
4313;SDS011;2170;48.794;9.182;2024-03-25T04:08:39;5.63;;;3.93;;
4313;SDS011;2170;48.794;9.182;2024-03-25T04:11:06;4.97;;;4.47;;
4313;SDS011;2170;48.794;9.182;2024-03-25T04:13:33;5.13;;;4.03;;
4313;SDS011;2170;48.794;9.182;2024-03-25T04:16:00;5.13;;;4.60;;
4313;SDS011;2170;48.794;9.182;2024-03-25T04:18:27;6.87;;;4.10;;
4313;SDS011;2170;48.794;9.182;2024-03-25T04:20:54;4.23;;;3.70;;
4313;SDS011;2170;48.794;9.182;2024-03-25T04:23:20;5.43;;;4.93;;
4313;SDS011;2170;48.794;9.182;2024-03-25T04:25:48;6.70;;;4.73;;
4313;SDS011;2170;48.794;9.182;2024-03-25T04:28:13;6.83;;;4.70;;
4313;SDS011;2170;48.794;9.182;2024-03-25T04:30:40;4.67;;;4.20;;
4313;SDS011;2170;48.794;9.182;2024-03-25T04:33:06;6.73;;;4.67;;
4313;SDS011;2170;48.794;9.182;2024-03-25T04:35:33;4.83;;;4.33;;
4313;SDS011;2170;48.794;9.182;2024-03-25T04:37:59;5.20;;;4.70;;
4313;SDS011;2170;48.794;9.182;2024-03-25T04:40:24;6.83;;;4.40;;
4313;SDS011;2170;48.794;9.182;2024-03-25T04:42:52;8.33;;;5.37;;
4313;SDS011;2170;48.794;9.182;2024-03-25T04:45:17;4.60;;;4.13;;
4313;SDS011;2170;48.794;9.182;2024-03-25T04:47:43;5.77;;;4.50;;
4313;SDS011;2170;48.794;9.182;2024-03-25T04:50:09;4.33;;;3.97;;
4313;SDS011;2170;48.794;9.182;2024-03-25T04:52:35;5.03;;;4.47;;
4313;SDS011;2170;48.794;9.182;2024-03-25T04:55:01;6.00;;;4.70;;
4313;SDS011;2170;48.794;9.182;2024-03-25T04:57:27;5.23;;;4.73;;
4313;SDS011;2170;48.794;9.182;2024-03-25T04:59:54;5.50;;;5.00;;
4313;SDS011;2170;48.794;9.182;2024-03-25T05:02:20;4.57;;;4.13;;
4313;SDS011;2170;48.794;9.182;2024-03-25T05:04:46;6.37;;;4.50;;
4313;SDS011;2170;48.794;9.182;2024-03-25T05:07:12;8.83;;;4.40;;
4313;SDS011;2170;48.794;9.182;2024-03-25T05:09:37;6.47;;;4.63;;
4313;SDS011;2170;48.794;9.182;2024-03-25T05:12:03;7.33;;;4.37;;
4313;SDS011;2170;48.794;9.182;2024-03-25T05:14:29;6.50;;;3.93;;
4313;SDS011;2170;48.794;9.182;2024-03-25T05:16:56;4.40;;;4.10;;
4313;SDS011;2170;48.794;9.182;2024-03-25T05:19:22;4.70;;;4.17;;
4313;SDS011;2170;48.794;9.182;2024-03-25T05:21:48;5.83;;;4.50;;
4313;SDS011;2170;48.794;9.182;2024-03-25T05:24:14;5.50;;;4.63;;
4313;SDS011;2170;48.794;9.182;2024-03-25T05:26:40;6.77;;;4.00;;
4313;SDS011;2170;48.794;9.182;2024-03-25T05:29:05;5.30;;;4.27;;
4313;SDS011;2170;48.794;9.182;2024-03-25T05:31:31;5.90;;;5.33;;
4313;SDS011;2170;48.794;9.182;2024-03-25T05:33:58;8.20;;;6.13;;
4313;SDS011;2170;48.794;9.182;2024-03-25T05:36:25;6.03;;;4.43;;
4313;SDS011;2170;48.794;9.182;2024-03-25T05:38:51;4.97;;;4.47;;
4313;SDS011;2170;48.794;9.182;2024-03-25T05:41:16;5.80;;;4.40;;
4313;SDS011;2170;48.794;9.182;2024-03-25T05:43:42;6.40;;;4.53;;
4313;SDS011;2170;48.794;9.182;2024-03-25T05:46:08;4.43;;;3.97;;
4313;SDS011;2170;48.794;9.182;2024-03-25T05:48:34;5.70;;;4.90;;
4313;SDS011;2170;48.794;9.182;2024-03-25T05:51:01;6.77;;;4.60;;
4313;SDS011;2170;48.794;9.182;2024-03-25T05:53:29;8.83;;;5.20;;
4313;SDS011;2170;48.794;9.182;2024-03-25T05:55:55;6.23;;;4.50;;
4313;SDS011;2170;48.794;9.182;2024-03-25T05:58:21;5.77;;;4.67;;
4313;SDS011;2170;48.794;9.182;2024-03-25T06:00:47;7.17;;;4.50;;
4313;SDS011;2170;48.794;9.182;2024-03-25T06:03:13;5.03;;;4.53;;
4313;SDS011;2170;48.794;9.182;2024-03-25T06:05:39;5.57;;;4.60;;
4313;SDS011;2170;48.794;9.182;2024-03-25T06:08:07;7.67;;;4.30;;
4313;SDS011;2170;48.794;9.182;2024-03-25T06:10:36;5.43;;;4.93;;
4313;SDS011;2170;48.794;9.182;2024-03-25T06:13:02;5.43;;;4.63;;
4313;SDS011;2170;48.794;9.182;2024-03-25T06:15:28;5.77;;;4.77;;
4313;SDS011;2170;48.794;9.182;2024-03-25T06:17:54;5.10;;;4.60;;
4313;SDS011;2170;48.794;9.182;2024-03-25T06:20:20;8.50;;;4.60;;
4313;SDS011;2170;48.794;9.182;2024-03-25T06:22:46;6.30;;;4.43;;
4313;SDS011;2170;48.794;9.182;2024-03-25T06:25:13;10.83;;;5.00;;
4313;SDS011;2170;48.794;9.182;2024-03-25T06:27:40;5.00;;;4.53;;
4313;SDS011;2170;48.794;9.182;2024-03-25T06:30:06;5.53;;;5.00;;
4313;SDS011;2170;48.794;9.182;2024-03-25T06:32:51;5.60;;;5.13;;
4313;SDS011;2170;48.794;9.182;2024-03-25T06:35:35;6.67;;;4.93;;
4313;SDS011;2170;48.794;9.182;2024-03-25T06:38:01;6.00;;;5.37;;
4313;SDS011;2170;48.794;9.182;2024-03-25T06:40:28;5.27;;;4.80;;
4313;SDS011;2170;48.794;9.182;2024-03-25T06:42:54;9.90;;;4.60;;
4313;SDS011;2170;48.794;9.182;2024-03-25T06:45:19;6.10;;;4.47;;
4313;SDS011;2170;48.794;9.182;2024-03-25T06:47:45;9.90;;;5.17;;
4313;SDS011;2170;48.794;9.182;2024-03-25T06:50:11;5.23;;;4.73;;
4313;SDS011;2170;48.794;9.182;2024-03-25T06:52:37;5.70;;;5.13;;
4313;SDS011;2170;48.794;9.182;2024-03-25T06:55:03;5.13;;;4.60;;
4313;SDS011;2170;48.794;9.182;2024-03-25T06:57:31;5.93;;;4.70;;
4313;SDS011;2170;48.794;9.182;2024-03-25T06:59:56;8.30;;;4.10;;
4313;SDS011;2170;48.794;9.182;2024-03-25T07:02:22;7.63;;;4.83;;
4313;SDS011;2170;48.794;9.182;2024-03-25T07:04:48;9.10;;;5.20;;
4313;SDS011;2170;48.794;9.182;2024-03-25T07:07:14;9.40;;;5.53;;
4313;SDS011;2170;48.794;9.182;2024-03-25T07:09:40;6.67;;;4.33;;
4313;SDS011;2170;48.794;9.182;2024-03-25T07:12:06;5.53;;;4.43;;
4313;SDS011;2170;48.794;9.182;2024-03-25T07:14:33;5.07;;;4.67;;
4313;SDS011;2170;48.794;9.182;2024-03-25T07:16:59;5.00;;;4.60;;
4313;SDS011;2170;48.794;9.182;2024-03-25T07:19:25;9.00;;;4.90;;
4313;SDS011;2170;48.794;9.182;2024-03-25T07:21:51;5.27;;;4.00;;
4313;SDS011;2170;48.794;9.182;2024-03-25T07:24:17;8.27;;;4.63;;
4313;SDS011;2170;48.794;9.182;2024-03-25T07:26:42;11.27;;;5.90;;
4313;SDS011;2170;48.794;9.182;2024-03-25T07:29:08;5.23;;;4.77;;
4313;SDS011;2170;48.794;9.182;2024-03-25T07:31:35;9.80;;;4.67;;
4313;SDS011;2170;48.794;9.182;2024-03-25T07:34:01;6.67;;;5.10;;
4313;SDS011;2170;48.794;9.182;2024-03-25T07:36:27;6.87;;;5.10;;
4313;SDS011;2170;48.794;9.182;2024-03-25T07:38:53;5.10;;;4.60;;
4313;SDS011;2170;48.794;9.182;2024-03-25T07:41:19;4.93;;;4.43;;
4313;SDS011;2170;48.794;9.182;2024-03-25T07:43:44;5.73;;;4.27;;
4313;SDS011;2170;48.794;9.182;2024-03-25T07:46:10;8.60;;;4.73;;
4313;SDS011;2170;48.794;9.182;2024-03-25T07:48:37;5.07;;;4.70;;
4313;SDS011;2170;48.794;9.182;2024-03-25T07:51:03;4.87;;;4.33;;
4313;SDS011;2170;48.794;9.182;2024-03-25T07:53:29;7.70;;;4.87;;
4313;SDS011;2170;48.794;9.182;2024-03-25T07:55:55;6.07;;;4.17;;
4313;SDS011;2170;48.794;9.182;2024-03-25T07:58:21;6.63;;;4.50;;
4313;SDS011;2170;48.794;9.182;2024-03-25T08:00:46;9.00;;;4.10;;
4313;SDS011;2170;48.794;9.182;2024-03-25T08:03:12;5.60;;;3.97;;
4313;SDS011;2170;48.794;9.182;2024-03-25T08:05:39;5.63;;;3.00;;
4313;SDS011;2170;48.794;9.182;2024-03-25T08:08:06;3.70;;;3.30;;
4313;SDS011;2170;48.794;9.182;2024-03-25T08:10:31;4.47;;;3.20;;
4313;SDS011;2170;48.794;9.182;2024-03-25T08:12:57;3.47;;;2.97;;
4313;SDS011;2170;48.794;9.182;2024-03-25T08:15:23;5.40;;;2.20;;
4313;SDS011;2170;48.794;9.182;2024-03-25T08:17:49;2.47;;;2.27;;
4313;SDS011;2170;48.794;9.182;2024-03-25T08:20:15;2.93;;;2.70;;
4313;SDS011;2170;48.794;9.182;2024-03-25T08:22:42;3.37;;;2.70;;
4313;SDS011;2170;48.794;9.182;2024-03-25T08:25:08;4.00;;;2.90;;
4313;SDS011;2170;48.794;9.182;2024-03-25T08:27:34;3.67;;;2.70;;
4313;SDS011;2170;48.794;9.182;2024-03-25T08:30:00;3.67;;;3.37;;
4313;SDS011;2170;48.794;9.182;2024-03-25T08:32:25;6.77;;;3.20;;
4313;SDS011;2170;48.794;9.182;2024-03-25T08:34:51;4.53;;;3.10;;
4313;SDS011;2170;48.794;9.182;2024-03-25T08:37:17;16.67;;;3.83;;
4313;SDS011;2170;48.794;9.182;2024-03-25T08:39:44;4.50;;;2.80;;
4313;SDS011;2170;48.794;9.182;2024-03-25T08:42:10;5.40;;;2.90;;
4313;SDS011;2170;48.794;9.182;2024-03-25T08:44:36;13.17;;;4.40;;
4313;SDS011;2170;48.794;9.182;2024-03-25T08:47:01;5.43;;;2.40;;
4313;SDS011;2170;48.794;9.182;2024-03-25T08:49:27;4.03;;;2.40;;
4313;SDS011;2170;48.794;9.182;2024-03-25T08:51:53;5.37;;;2.67;;
4313;SDS011;2170;48.794;9.182;2024-03-25T08:54:19;4.43;;;2.53;;
4313;SDS011;2170;48.794;9.182;2024-03-25T08:56:46;2.23;;;1.97;;
4313;SDS011;2170;48.794;9.182;2024-03-25T08:59:12;2.37;;;2.17;;
4313;SDS011;2170;48.794;9.182;2024-03-25T09:01:37;2.07;;;1.87;;
4313;SDS011;2170;48.794;9.182;2024-03-25T09:04:03;2.97;;;1.90;;
4313;SDS011;2170;48.794;9.182;2024-03-25T09:06:29;2.20;;;1.77;;
4313;SDS011;2170;48.794;9.182;2024-03-25T09:08:55;6.77;;;3.03;;
4313;SDS011;2170;48.794;9.182;2024-03-25T09:11:39;3.53;;;2.50;;
4313;SDS011;2170;48.794;9.182;2024-03-25T09:14:06;4.10;;;2.20;;
4313;SDS011;2170;48.794;9.182;2024-03-25T09:16:32;3.63;;;2.83;;
4313;SDS011;2170;48.794;9.182;2024-03-25T09:18:58;3.07;;;2.27;;
4313;SDS011;2170;48.794;9.182;2024-03-25T09:21:24;1.90;;;1.50;;
4313;SDS011;2170;48.794;9.182;2024-03-25T09:23:49;2.07;;;1.80;;
4313;SDS011;2170;48.794;9.182;2024-03-25T09:26:15;1.93;;;1.83;;
4313;SDS011;2170;48.794;9.182;2024-03-25T09:28:41;2.07;;;1.97;;
4313;SDS011;2170;48.794;9.182;2024-03-25T09:31:08;2.70;;;2.10;;
4313;SDS011;2170;48.794;9.182;2024-03-25T09:33:34;4.30;;;2.57;;
4313;SDS011;2170;48.794;9.182;2024-03-25T09:36:00;6.83;;;2.70;;
4313;SDS011;2170;48.794;9.182;2024-03-25T09:38:25;4.40;;;3.07;;
4313;SDS011;2170;48.794;9.182;2024-03-25T09:40:52;3.23;;;2.10;;
4313;SDS011;2170;48.794;9.182;2024-03-25T09:43:20;3.33;;;2.33;;
4313;SDS011;2170;48.794;9.182;2024-03-25T09:45:50;3.60;;;2.73;;
4313;SDS011;2170;48.794;9.182;2024-03-25T09:48:19;9.50;;;3.37;;
4313;SDS011;2170;48.794;9.182;2024-03-25T09:50:46;3.13;;;2.10;;
4313;SDS011;2170;48.794;9.182;2024-03-25T09:53:14;3.90;;;2.03;;
4313;SDS011;2170;48.794;9.182;2024-03-25T09:55:40;2.87;;;2.20;;
4313;SDS011;2170;48.794;9.182;2024-03-25T09:58:06;3.87;;;2.20;;
4313;SDS011;2170;48.794;9.182;2024-03-25T10:00:33;3.17;;;2.03;;
4313;SDS011;2170;48.794;9.182;2024-03-25T10:02:58;2.43;;;2.07;;
4313;SDS011;2170;48.794;9.182;2024-03-25T10:05:26;2.63;;;2.43;;
4313;SDS011;2170;48.794;9.182;2024-03-25T10:07:51;2.53;;;2.17;;
4313;SDS011;2170;48.794;9.182;2024-03-25T10:10:18;3.77;;;2.10;;
4313;SDS011;2170;48.794;9.182;2024-03-25T10:12:45;3.03;;;2.23;;
4313;SDS011;2170;48.794;9.182;2024-03-25T10:15:14;2.67;;;2.30;;
4313;SDS011;2170;48.794;9.182;2024-03-25T10:17:41;3.40;;;2.37;;
4313;SDS011;2170;48.794;9.182;2024-03-25T10:20:07;3.40;;;2.20;;
4313;SDS011;2170;48.794;9.182;2024-03-25T10:22:41;2.40;;;2.20;;
4313;SDS011;2170;48.794;9.182;2024-03-25T10:25:07;2.33;;;2.13;;
4313;SDS011;2170;48.794;9.182;2024-03-25T10:27:52;3.67;;;2.50;;
4313;SDS011;2170;48.794;9.182;2024-03-25T10:30:18;3.00;;;2.40;;
4313;SDS011;2170;48.794;9.182;2024-03-25T10:32:44;2.30;;;2.10;;
4313;SDS011;2170;48.794;9.182;2024-03-25T10:35:10;3.07;;;2.27;;
4313;SDS011;2170;48.794;9.182;2024-03-25T10:37:38;4.40;;;2.53;;
4313;SDS011;2170;48.794;9.182;2024-03-25T10:40:06;2.67;;;2.47;;
4313;SDS011;2170;48.794;9.182;2024-03-25T10:42:35;4.63;;;2.30;;
4313;SDS011;2170;48.794;9.182;2024-03-25T10:45:06;3.27;;;2.50;;
4313;SDS011;2170;48.794;9.182;2024-03-25T10:47:34;2.80;;;2.33;;
4313;SDS011;2170;48.794;9.182;2024-03-25T10:50:02;4.63;;;2.53;;
4313;SDS011;2170;48.794;9.182;2024-03-25T10:52:34;3.10;;;2.43;;
4313;SDS011;2170;48.794;9.182;2024-03-25T10:55:02;2.47;;;2.23;;
4313;SDS011;2170;48.794;9.182;2024-03-25T10:57:30;2.33;;;2.13;;
4313;SDS011;2170;48.794;9.182;2024-03-25T10:59:56;3.17;;;2.47;;
4313;SDS011;2170;48.794;9.182;2024-03-25T11:02:22;2.13;;;1.90;;
4313;SDS011;2170;48.794;9.182;2024-03-25T11:04:49;2.70;;;2.50;;
4313;SDS011;2170;48.794;9.182;2024-03-25T11:07:16;4.30;;;2.00;;
4313;SDS011;2170;48.794;9.182;2024-03-25T11:09:42;3.40;;;2.40;;
4313;SDS011;2170;48.794;9.182;2024-03-25T11:12:09;1.90;;;1.80;;
4313;SDS011;2170;48.794;9.182;2024-03-25T11:14:37;2.83;;;2.53;;
4313;SDS011;2170;48.794;9.182;2024-03-25T11:17:13;2.10;;;1.90;;
4313;SDS011;2170;48.794;9.182;2024-03-25T11:19:40;3.03;;;1.70;;
4313;SDS011;2170;48.794;9.182;2024-03-25T11:22:09;2.77;;;2.20;;
4313;SDS011;2170;48.794;9.182;2024-03-25T11:24:36;2.20;;;2.00;;
4313;SDS011;2170;48.794;9.182;2024-03-25T11:27:03;5.50;;;1.90;;
4313;SDS011;2170;48.794;9.182;2024-03-25T11:29:31;2.40;;;2.10;;
4313;SDS011;2170;48.794;9.182;2024-03-25T11:31:59;2.07;;;1.97;;
4313;SDS011;2170;48.794;9.182;2024-03-25T11:34:28;2.73;;;2.20;;
4313;SDS011;2170;48.794;9.182;2024-03-25T11:36:54;2.50;;;2.30;;
4313;SDS011;2170;48.794;9.182;2024-03-25T11:39:20;4.60;;;2.60;;
4313;SDS011;2170;48.794;9.182;2024-03-25T11:41:45;2.23;;;1.90;;
4313;SDS011;2170;48.794;9.182;2024-03-25T11:44:12;3.40;;;2.43;;
4313;SDS011;2170;48.794;9.182;2024-03-25T11:46:38;2.00;;;1.80;;
4313;SDS011;2170;48.794;9.182;2024-03-25T11:49:06;2.23;;;2.03;;
4313;SDS011;2170;48.794;9.182;2024-03-25T11:51:35;2.30;;;1.87;;
4313;SDS011;2170;48.794;9.182;2024-03-25T11:54:03;2.37;;;2.17;;
4313;SDS011;2170;48.794;9.182;2024-03-25T11:56:29;2.83;;;2.33;;
4313;SDS011;2170;48.794;9.182;2024-03-25T11:58:55;3.13;;;2.00;;
4313;SDS011;2170;48.794;9.182;2024-03-25T12:01:21;2.80;;;2.60;;
4313;SDS011;2170;48.794;9.182;2024-03-25T12:03:47;2.90;;;2.63;;
4313;SDS011;2170;48.794;9.182;2024-03-25T12:06:14;4.40;;;2.47;;
4313;SDS011;2170;48.794;9.182;2024-03-25T12:08:40;2.53;;;2.33;;
4313;SDS011;2170;48.794;9.182;2024-03-25T12:11:06;2.50;;;2.40;;
4313;SDS011;2170;48.794;9.182;2024-03-25T12:13:44;5.43;;;2.80;;
4313;SDS011;2170;48.794;9.182;2024-03-25T12:16:10;3.43;;;2.70;;
4313;SDS011;2170;48.794;9.182;2024-03-25T12:18:36;2.67;;;2.47;;
4313;SDS011;2170;48.794;9.182;2024-03-25T12:21:06;2.60;;;2.40;;
4313;SDS011;2170;48.794;9.182;2024-03-25T12:23:33;2.67;;;2.47;;
4313;SDS011;2170;48.794;9.182;2024-03-25T12:25:59;4.43;;;2.83;;
4313;SDS011;2170;48.794;9.182;2024-03-25T12:28:26;5.60;;;3.30;;
4313;SDS011;2170;48.794;9.182;2024-03-25T12:30:52;4.00;;;2.70;;
4313;SDS011;2170;48.794;9.182;2024-03-25T12:33:19;3.30;;;3.00;;
4313;SDS011;2170;48.794;9.182;2024-03-25T12:35:45;3.40;;;3.10;;
4313;SDS011;2170;48.794;9.182;2024-03-25T12:38:21;3.10;;;2.27;;
4313;SDS011;2170;48.794;9.182;2024-03-25T12:40:49;4.97;;;3.00;;
4313;SDS011;2170;48.794;9.182;2024-03-25T12:43:15;2.90;;;2.27;;
4313;SDS011;2170;48.794;9.182;2024-03-25T12:45:42;3.00;;;2.67;;
4313;SDS011;2170;48.794;9.182;2024-03-25T12:48:08;2.83;;;2.60;;
4313;SDS011;2170;48.794;9.182;2024-03-25T12:50:33;4.90;;;3.17;;
4313;SDS011;2170;48.794;9.182;2024-03-25T12:52:59;2.60;;;2.40;;
4313;SDS011;2170;48.794;9.182;2024-03-25T12:55:25;2.90;;;2.23;;
4313;SDS011;2170;48.794;9.182;2024-03-25T12:57:52;2.40;;;2.20;;
4313;SDS011;2170;48.794;9.182;2024-03-25T13:00:18;2.57;;;2.20;;
4313;SDS011;2170;48.794;9.182;2024-03-25T13:02:44;3.23;;;2.07;;
4313;SDS011;2170;48.794;9.182;2024-03-25T13:05:10;2.10;;;1.90;;
4313;SDS011;2170;48.794;9.182;2024-03-25T13:07:36;3.40;;;2.60;;
4313;SDS011;2170;48.794;9.182;2024-03-25T13:10:01;2.43;;;2.23;;
4313;SDS011;2170;48.794;9.182;2024-03-25T13:12:28;3.40;;;2.30;;
4313;SDS011;2170;48.794;9.182;2024-03-25T13:14:55;2.50;;;2.20;;
4313;SDS011;2170;48.794;9.182;2024-03-25T13:17:21;2.40;;;2.07;;
4313;SDS011;2170;48.794;9.182;2024-03-25T13:19:47;2.53;;;2.20;;
4313;SDS011;2170;48.794;9.182;2024-03-25T13:22:12;4.53;;;2.40;;
4313;SDS011;2170;48.794;9.182;2024-03-25T13:24:38;3.10;;;2.50;;
4313;SDS011;2170;48.794;9.182;2024-03-25T13:27:04;2.60;;;2.17;;
4313;SDS011;2170;48.794;9.182;2024-03-25T13:29:30;2.60;;;2.40;;
4313;SDS011;2170;48.794;9.182;2024-03-25T13:31:57;3.23;;;2.43;;
4313;SDS011;2170;48.794;9.182;2024-03-25T13:34:23;3.00;;;2.47;;
4313;SDS011;2170;48.794;9.182;2024-03-25T13:36:49;4.10;;;2.70;;
4313;SDS011;2170;48.794;9.182;2024-03-25T13:39:15;2.13;;;1.90;;
4313;SDS011;2170;48.794;9.182;2024-03-25T13:41:40;2.70;;;2.50;;
4313;SDS011;2170;48.794;9.182;2024-03-25T13:44:06;4.23;;;1.87;;
4313;SDS011;2170;48.794;9.182;2024-03-25T13:46:32;3.53;;;2.20;;
4313;SDS011;2170;48.794;9.182;2024-03-25T13:48:59;2.33;;;2.10;;
4313;SDS011;2170;48.794;9.182;2024-03-25T13:51:25;3.03;;;2.50;;
4313;SDS011;2170;48.794;9.182;2024-03-25T13:53:51;2.53;;;2.40;;
4313;SDS011;2170;48.794;9.182;2024-03-25T13:56:16;4.40;;;2.33;;
4313;SDS011;2170;48.794;9.182;2024-03-25T13:58:43;2.60;;;2.40;;
4313;SDS011;2170;48.794;9.182;2024-03-25T14:01:08;4.90;;;2.43;;
4313;SDS011;2170;48.794;9.182;2024-03-25T14:03:34;5.40;;;2.40;;
4313;SDS011;2170;48.794;9.182;2024-03-25T14:06:02;3.73;;;2.30;;
4313;SDS011;2170;48.794;9.182;2024-03-25T14:08:28;3.80;;;2.30;;
4313;SDS011;2170;48.794;9.182;2024-03-25T14:10:57;2.87;;;2.37;;
4313;SDS011;2170;48.794;9.182;2024-03-25T14:13:23;2.80;;;2.30;;
4313;SDS011;2170;48.794;9.182;2024-03-25T14:15:49;2.03;;;1.90;;
4313;SDS011;2170;48.794;9.182;2024-03-25T14:18:15;1.70;;;1.60;;
4313;SDS011;2170;48.794;9.182;2024-03-25T14:20:41;2.23;;;1.97;;
4313;SDS011;2170;48.794;9.182;2024-03-25T14:23:08;2.27;;;2.07;;
4313;SDS011;2170;48.794;9.182;2024-03-25T14:25:34;2.47;;;2.00;;
4313;SDS011;2170;48.794;9.182;2024-03-25T14:28:00;3.27;;;2.83;;
4313;SDS011;2170;48.794;9.182;2024-03-25T14:30:26;3.07;;;1.90;;
4313;SDS011;2170;48.794;9.182;2024-03-25T14:32:52;3.90;;;1.93;;
4313;SDS011;2170;48.794;9.182;2024-03-25T14:35:18;3.90;;;2.17;;
4313;SDS011;2170;48.794;9.182;2024-03-25T14:37:44;3.47;;;2.20;;
4313;SDS011;2170;48.794;9.182;2024-03-25T14:40:12;2.23;;;1.80;;
4313;SDS011;2170;48.794;9.182;2024-03-25T14:42:38;3.53;;;2.20;;
4313;SDS011;2170;48.794;9.182;2024-03-25T14:45:04;3.27;;;1.90;;
4313;SDS011;2170;48.794;9.182;2024-03-25T14:47:30;2.20;;;1.67;;
4313;SDS011;2170;48.794;9.182;2024-03-25T14:49:56;2.33;;;2.10;;
4313;SDS011;2170;48.794;9.182;2024-03-25T14:52:22;3.20;;;2.03;;
4313;SDS011;2170;48.794;9.182;2024-03-25T14:54:48;3.37;;;2.03;;
4313;SDS011;2170;48.794;9.182;2024-03-25T14:57:15;2.80;;;2.23;;
4313;SDS011;2170;48.794;9.182;2024-03-25T14:59:41;2.23;;;2.10;;
4313;SDS011;2170;48.794;9.182;2024-03-25T15:02:07;1.90;;;1.80;;
4313;SDS011;2170;48.794;9.182;2024-03-25T15:04:32;2.17;;;1.93;;
4313;SDS011;2170;48.794;9.182;2024-03-25T15:06:58;2.30;;;2.20;;
4313;SDS011;2170;48.794;9.182;2024-03-25T15:09:24;1.93;;;1.83;;
4313;SDS011;2170;48.794;9.182;2024-03-25T15:11:50;2.40;;;2.20;;